sensor_id;sensor_type;location;lat;lon;timestamp;P1;durP1;ratioP1;P2;durP2;ratioP2
803;SDS011;25687;49.976;8.240;2024-01-15T00:01:01;18.37;;;10.50;;
803;SDS011;25687;49.976;8.240;2024-01-15T00:03:27;21.63;;;10.13;;
803;SDS011;25687;49.976;8.240;2024-01-15T00:05:52;21.70;;;11.20;;
803;SDS011;25687;49.976;8.240;2024-01-15T00:08:17;21.70;;;10.80;;
803;SDS011;25687;49.976;8.240;2024-01-15T00:10:43;20.37;;;9.97;;
803;SDS011;25687;49.976;8.240;2024-01-15T00:13:08;20.27;;;11.03;;
803;SDS011;25687;49.976;8.240;2024-01-15T00:15:33;25.00;;;11.97;;
803;SDS011;25687;49.976;8.240;2024-01-15T00:17:58;22.57;;;10.60;;
803;SDS011;25687;49.976;8.240;2024-01-15T00:20:24;21.43;;;10.87;;
803;SDS011;25687;49.976;8.240;2024-01-15T00:22:49;21.83;;;10.33;;
803;SDS011;25687;49.976;8.240;2024-01-15T00:25:14;22.97;;;11.70;;
803;SDS011;25687;49.976;8.240;2024-01-15T00:27:40;21.07;;;11.50;;
803;SDS011;25687;49.976;8.240;2024-01-15T00:30:05;17.23;;;10.10;;
803;SDS011;25687;49.976;8.240;2024-01-15T00:32:31;19.90;;;10.30;;
803;SDS011;25687;49.976;8.240;2024-01-15T00:34:56;20.73;;;10.80;;
803;SDS011;25687;49.976;8.240;2024-01-15T00:37:21;24.77;;;10.43;;
803;SDS011;25687;49.976;8.240;2024-01-15T00:39:47;23.63;;;11.80;;
803;SDS011;25687;49.976;8.240;2024-01-15T00:42:12;21.87;;;10.57;;
803;SDS011;25687;49.976;8.240;2024-01-15T00:44:37;18.83;;;10.40;;
803;SDS011;25687;49.976;8.240;2024-01-15T00:47:03;22.37;;;10.67;;
803;SDS011;25687;49.976;8.240;2024-01-15T00:49:28;26.47;;;12.30;;
803;SDS011;25687;49.976;8.240;2024-01-15T00:51:54;20.70;;;10.97;;
803;SDS011;25687;49.976;8.240;2024-01-15T00:54:19;20.60;;;10.50;;
803;SDS011;25687;49.976;8.240;2024-01-15T00:56:45;29.77;;;11.80;;
803;SDS011;25687;49.976;8.240;2024-01-15T00:59:11;21.40;;;10.33;;
803;SDS011;25687;49.976;8.240;2024-01-15T01:01:40;26.23;;;12.07;;
803;SDS011;25687;49.976;8.240;2024-01-15T01:04:07;24.07;;;11.40;;
803;SDS011;25687;49.976;8.240;2024-01-15T01:06:34;25.83;;;11.27;;
803;SDS011;25687;49.976;8.240;2024-01-15T01:08:59;21.57;;;11.70;;
803;SDS011;25687;49.976;8.240;2024-01-15T01:11:25;23.17;;;10.50;;
803;SDS011;25687;49.976;8.240;2024-01-15T01:13:50;25.63;;;11.60;;
803;SDS011;25687;49.976;8.240;2024-01-15T01:16:15;22.30;;;10.77;;
803;SDS011;25687;49.976;8.240;2024-01-15T01:18:40;22.23;;;9.67;;
803;SDS011;25687;49.976;8.240;2024-01-15T01:21:06;18.57;;;10.07;;
803;SDS011;25687;49.976;8.240;2024-01-15T01:23:31;20.07;;;10.60;;
803;SDS011;25687;49.976;8.240;2024-01-15T01:25:56;19.43;;;9.87;;
803;SDS011;25687;49.976;8.240;2024-01-15T01:28:21;20.93;;;10.60;;
803;SDS011;25687;49.976;8.240;2024-01-15T01:30:47;22.20;;;10.97;;
803;SDS011;25687;49.976;8.240;2024-01-15T01:33:12;22.73;;;11.47;;
803;SDS011;25687;49.976;8.240;2024-01-15T01:35:37;22.10;;;10.37;;
803;SDS011;25687;49.976;8.240;2024-01-15T01:38:03;24.50;;;11.67;;
803;SDS011;25687;49.976;8.240;2024-01-15T01:40:28;24.63;;;11.53;;
803;SDS011;25687;49.976;8.240;2024-01-15T01:42:53;22.50;;;11.53;;
803;SDS011;25687;49.976;8.240;2024-01-15T01:45:19;22.03;;;10.83;;
803;SDS011;25687;49.976;8.240;2024-01-15T01:47:44;21.00;;;10.07;;
803;SDS011;25687;49.976;8.240;2024-01-15T01:50:09;23.10;;;11.10;;
803;SDS011;25687;49.976;8.240;2024-01-15T01:52:35;22.47;;;10.77;;
803;SDS011;25687;49.976;8.240;2024-01-15T01:55:01;21.97;;;10.30;;
803;SDS011;25687;49.976;8.240;2024-01-15T01:57:28;21.03;;;10.23;;
803;SDS011;25687;49.976;8.240;2024-01-15T01:59:54;19.90;;;10.50;;
803;SDS011;25687;49.976;8.240;2024-01-15T02:02:20;17.83;;;9.30;;
803;SDS011;25687;49.976;8.240;2024-01-15T02:04:46;20.47;;;10.10;;
803;SDS011;25687;49.976;8.240;2024-01-15T02:07:13;21.13;;;10.30;;
803;SDS011;25687;49.976;8.240;2024-01-15T02:09:38;17.43;;;9.83;;
803;SDS011;25687;49.976;8.240;2024-01-15T02:12:03;20.53;;;10.00;;
803;SDS011;25687;49.976;8.240;2024-01-15T02:14:29;24.17;;;10.73;;
803;SDS011;25687;49.976;8.240;2024-01-15T02:16:55;22.43;;;10.57;;
803;SDS011;25687;49.976;8.240;2024-01-15T02:19:20;21.67;;;10.83;;
803;SDS011;25687;49.976;8.240;2024-01-15T02:21:45;20.90;;;10.43;;
803;SDS011;25687;49.976;8.240;2024-01-15T02:24:10;22.03;;;10.13;;
803;SDS011;25687;49.976;8.240;2024-01-15T02:26:36;20.53;;;11.23;;
803;SDS011;25687;49.976;8.240;2024-01-15T02:29:03;19.50;;;10.87;;
803;SDS011;25687;49.976;8.240;2024-01-15T02:31:29;15.67;;;9.73;;
803;SDS011;25687;49.976;8.240;2024-01-15T02:33:55;18.40;;;10.33;;
803;SDS011;25687;49.976;8.240;2024-01-15T02:36:20;25.13;;;9.90;;
803;SDS011;25687;49.976;8.240;2024-01-15T02:38:45;20.70;;;10.37;;
803;SDS011;25687;49.976;8.240;2024-01-15T02:41:10;18.80;;;9.93;;
803;SDS011;25687;49.976;8.240;2024-01-15T02:43:36;20.37;;;10.10;;
803;SDS011;25687;49.976;8.240;2024-01-15T02:46:01;22.70;;;10.20;;
803;SDS011;25687;49.976;8.240;2024-01-15T02:48:26;17.80;;;9.63;;
803;SDS011;25687;49.976;8.240;2024-01-15T02:50:51;20.07;;;10.67;;
803;SDS011;25687;49.976;8.240;2024-01-15T02:53:17;16.33;;;9.17;;
803;SDS011;25687;49.976;8.240;2024-01-15T02:55:42;16.53;;;9.27;;
803;SDS011;25687;49.976;8.240;2024-01-15T02:58:07;20.23;;;9.87;;
803;SDS011;25687;49.976;8.240;2024-01-15T03:00:32;18.97;;;9.13;;
803;SDS011;25687;49.976;8.240;2024-01-15T03:02:58;17.40;;;9.57;;
803;SDS011;25687;49.976;8.240;2024-01-15T03:05:23;18.70;;;9.70;;
803;SDS011;25687;49.976;8.240;2024-01-15T03:07:48;18.43;;;9.23;;
803;SDS011;25687;49.976;8.240;2024-01-15T03:10:14;20.63;;;9.33;;
803;SDS011;25687;49.976;8.240;2024-01-15T03:12:39;24.30;;;10.33;;
803;SDS011;25687;49.976;8.240;2024-01-15T03:15:04;17.53;;;8.37;;
803;SDS011;25687;49.976;8.240;2024-01-15T03:17:30;23.53;;;10.43;;
803;SDS011;25687;49.976;8.240;2024-01-15T03:19:55;18.13;;;9.60;;
803;SDS011;25687;49.976;8.240;2024-01-15T03:22:20;18.00;;;8.87;;
803;SDS011;25687;49.976;8.240;2024-01-15T03:24:46;17.37;;;9.37;;
803;SDS011;25687;49.976;8.240;2024-01-15T03:27:11;19.07;;;9.07;;
803;SDS011;25687;49.976;8.240;2024-01-15T03:29:36;21.47;;;10.27;;
803;SDS011;25687;49.976;8.240;2024-01-15T03:32:01;20.10;;;8.93;;
803;SDS011;25687;49.976;8.240;2024-01-15T03:34:27;20.40;;;9.73;;
803;SDS011;25687;49.976;8.240;2024-01-15T03:36:53;22.27;;;10.37;;
803;SDS011;25687;49.976;8.240;2024-01-15T03:39:18;18.77;;;9.53;;
803;SDS011;25687;49.976;8.240;2024-01-15T03:41:43;21.67;;;9.87;;
803;SDS011;25687;49.976;8.240;2024-01-15T03:44:08;20.57;;;9.30;;
803;SDS011;25687;49.976;8.240;2024-01-15T03:46:34;16.47;;;8.90;;
803;SDS011;25687;49.976;8.240;2024-01-15T03:48:59;20.80;;;9.63;;
803;SDS011;25687;49.976;8.240;2024-01-15T03:51:24;20.00;;;10.40;;
803;SDS011;25687;49.976;8.240;2024-01-15T03:53:49;18.97;;;10.57;;
803;SDS011;25687;49.976;8.240;2024-01-15T03:56:15;19.93;;;10.30;;
803;SDS011;25687;49.976;8.240;2024-01-15T03:58:40;20.47;;;10.03;;
803;SDS011;25687;49.976;8.240;2024-01-15T04:01:11;19.07;;;8.70;;
803;SDS011;25687;49.976;8.240;2024-01-15T04:03:37;19.13;;;9.77;;
803;SDS011;25687;49.976;8.240;2024-01-15T04:06:03;18.80;;;9.47;;
803;SDS011;25687;49.976;8.240;2024-01-15T04:08:29;17.27;;;8.27;;
803;SDS011;25687;49.976;8.240;2024-01-15T04:10:54;19.93;;;9.13;;
803;SDS011;25687;49.976;8.240;2024-01-15T04:13:20;18.87;;;9.40;;
803;SDS011;25687;49.976;8.240;2024-01-15T04:15:45;18.97;;;9.63;;
803;SDS011;25687;49.976;8.240;2024-01-15T04:18:10;17.83;;;9.53;;
803;SDS011;25687;49.976;8.240;2024-01-15T04:20:36;19.07;;;9.37;;
803;SDS011;25687;49.976;8.240;2024-01-15T04:23:01;16.87;;;8.83;;
803;SDS011;25687;49.976;8.240;2024-01-15T04:25:26;20.27;;;10.50;;
803;SDS011;25687;49.976;8.240;2024-01-15T04:27:51;18.70;;;9.03;;
803;SDS011;25687;49.976;8.240;2024-01-15T04:30:17;15.67;;;8.97;;
803;SDS011;25687;49.976;8.240;2024-01-15T04:32:42;21.13;;;9.43;;
803;SDS011;25687;49.976;8.240;2024-01-15T04:35:07;16.17;;;9.13;;
803;SDS011;25687;49.976;8.240;2024-01-15T04:37:33;19.10;;;9.80;;
803;SDS011;25687;49.976;8.240;2024-01-15T04:39:58;20.17;;;9.63;;
803;SDS011;25687;49.976;8.240;2024-01-15T04:42:23;20.63;;;10.30;;
803;SDS011;25687;49.976;8.240;2024-01-15T04:44:48;19.83;;;10.10;;
803;SDS011;25687;49.976;8.240;2024-01-15T04:47:14;17.37;;;9.73;;
803;SDS011;25687;49.976;8.240;2024-01-15T04:49:39;16.90;;;9.50;;
803;SDS011;25687;49.976;8.240;2024-01-15T04:52:04;19.57;;;9.73;;
803;SDS011;25687;49.976;8.240;2024-01-15T04:54:30;17.80;;;9.40;;
803;SDS011;25687;49.976;8.240;2024-01-15T04:56:55;15.17;;;8.10;;
803;SDS011;25687;49.976;8.240;2024-01-15T04:59:20;23.93;;;8.93;;
803;SDS011;25687;49.976;8.240;2024-01-15T05:01:45;18.10;;;9.17;;
803;SDS011;25687;49.976;8.240;2024-01-15T05:04:11;20.37;;;9.53;;
803;SDS011;25687;49.976;8.240;2024-01-15T05:06:36;20.90;;;10.27;;
803;SDS011;25687;49.976;8.240;2024-01-15T05:09:01;18.43;;;9.20;;
803;SDS011;25687;49.976;8.240;2024-01-15T05:11:28;15.90;;;9.30;;
803;SDS011;25687;49.976;8.240;2024-01-15T05:13:53;17.30;;;9.77;;
803;SDS011;25687;49.976;8.240;2024-01-15T05:16:18;17.70;;;9.07;;
803;SDS011;25687;49.976;8.240;2024-01-15T05:18:43;20.03;;;10.30;;
803;SDS011;25687;49.976;8.240;2024-01-15T05:21:09;19.00;;;9.77;;
803;SDS011;25687;49.976;8.240;2024-01-15T05:23:34;20.17;;;9.73;;
803;SDS011;25687;49.976;8.240;2024-01-15T05:25:59;22.63;;;10.60;;
803;SDS011;25687;49.976;8.240;2024-01-15T05:28:24;19.63;;;9.57;;
803;SDS011;25687;49.976;8.240;2024-01-15T05:30:50;21.90;;;11.13;;
803;SDS011;25687;49.976;8.240;2024-01-15T05:33:16;21.13;;;11.20;;
803;SDS011;25687;49.976;8.240;2024-01-15T05:35:42;20.97;;;10.17;;
803;SDS011;25687;49.976;8.240;2024-01-15T05:38:07;20.50;;;9.90;;
803;SDS011;25687;49.976;8.240;2024-01-15T05:40:32;16.40;;;8.90;;
803;SDS011;25687;49.976;8.240;2024-01-15T05:42:57;21.43;;;9.43;;
803;SDS011;25687;49.976;8.240;2024-01-15T05:45:23;18.83;;;10.43;;
803;SDS011;25687;49.976;8.240;2024-01-15T05:47:48;19.77;;;10.43;;
803;SDS011;25687;49.976;8.240;2024-01-15T05:50:14;17.03;;;9.77;;
803;SDS011;25687;49.976;8.240;2024-01-15T05:52:39;16.50;;;9.20;;
803;SDS011;25687;49.976;8.240;2024-01-15T05:55:05;19.27;;;9.73;;
803;SDS011;25687;49.976;8.240;2024-01-15T05:57:30;18.73;;;9.70;;
803;SDS011;25687;49.976;8.240;2024-01-15T05:59:55;18.37;;;10.03;;
803;SDS011;25687;49.976;8.240;2024-01-15T06:02:21;17.13;;;10.33;;
803;SDS011;25687;49.976;8.240;2024-01-15T06:04:46;19.23;;;10.07;;
803;SDS011;25687;49.976;8.240;2024-01-15T06:07:11;16.57;;;9.23;;
803;SDS011;25687;49.976;8.240;2024-01-15T06:09:37;17.73;;;10.03;;
803;SDS011;25687;49.976;8.240;2024-01-15T06:12:03;20.27;;;9.57;;
803;SDS011;25687;49.976;8.240;2024-01-15T06:14:29;17.00;;;8.97;;
803;SDS011;25687;49.976;8.240;2024-01-15T06:16:54;17.60;;;9.63;;
803;SDS011;25687;49.976;8.240;2024-01-15T06:19:19;17.20;;;9.60;;
803;SDS011;25687;49.976;8.240;2024-01-15T06:21:44;20.63;;;10.50;;
803;SDS011;25687;49.976;8.240;2024-01-15T06:24:10;17.90;;;10.03;;
803;SDS011;25687;49.976;8.240;2024-01-15T06:26:35;19.03;;;9.27;;
803;SDS011;25687;49.976;8.240;2024-01-15T06:29:01;15.80;;;9.23;;
803;SDS011;25687;49.976;8.240;2024-01-15T06:31:28;20.13;;;10.47;;
803;SDS011;25687;49.976;8.240;2024-01-15T06:33:53;19.33;;;10.00;;
803;SDS011;25687;49.976;8.240;2024-01-15T06:36:18;22.10;;;10.00;;
803;SDS011;25687;49.976;8.240;2024-01-15T06:38:44;22.83;;;10.63;;
803;SDS011;25687;49.976;8.240;2024-01-15T06:41:09;22.43;;;11.17;;
803;SDS011;25687;49.976;8.240;2024-01-15T06:43:35;19.13;;;11.57;;
803;SDS011;25687;49.976;8.240;2024-01-15T06:46:00;20.70;;;10.20;;
803;SDS011;25687;49.976;8.240;2024-01-15T06:48:25;20.83;;;12.20;;
803;SDS011;25687;49.976;8.240;2024-01-15T06:50:50;19.73;;;10.87;;
803;SDS011;25687;49.976;8.240;2024-01-15T06:53:16;20.47;;;10.60;;
803;SDS011;25687;49.976;8.240;2024-01-15T06:55:41;22.67;;;10.67;;
803;SDS011;25687;49.976;8.240;2024-01-15T06:58:06;18.13;;;10.77;;
803;SDS011;25687;49.976;8.240;2024-01-15T07:00:32;22.37;;;11.00;;
803;SDS011;25687;49.976;8.240;2024-01-15T07:02:58;21.67;;;11.03;;
803;SDS011;25687;49.976;8.240;2024-01-15T07:05:23;19.87;;;10.87;;
803;SDS011;25687;49.976;8.240;2024-01-15T07:07:49;21.10;;;11.97;;
803;SDS011;25687;49.976;8.240;2024-01-15T07:10:14;21.07;;;11.27;;
803;SDS011;25687;49.976;8.240;2024-01-15T07:12:43;25.60;;;11.07;;
803;SDS011;25687;49.976;8.240;2024-01-15T07:15:09;22.43;;;10.50;;
803;SDS011;25687;49.976;8.240;2024-01-15T07:17:34;23.57;;;11.47;;
803;SDS011;25687;49.976;8.240;2024-01-15T07:20:00;21.47;;;11.40;;
803;SDS011;25687;49.976;8.240;2024-01-15T07:22:26;22.77;;;11.70;;
803;SDS011;25687;49.976;8.240;2024-01-15T07:24:51;22.53;;;11.23;;
803;SDS011;25687;49.976;8.240;2024-01-15T07:27:17;21.73;;;11.53;;
803;SDS011;25687;49.976;8.240;2024-01-15T07:29:42;17.80;;;10.80;;
803;SDS011;25687;49.976;8.240;2024-01-15T07:32:08;23.77;;;11.97;;
803;SDS011;25687;49.976;8.240;2024-01-15T07:34:33;21.73;;;11.37;;
803;SDS011;25687;49.976;8.240;2024-01-15T07:36:59;23.23;;;11.47;;
803;SDS011;25687;49.976;8.240;2024-01-15T07:39:24;23.43;;;11.53;;
803;SDS011;25687;49.976;8.240;2024-01-15T07:41:50;20.07;;;11.10;;
803;SDS011;25687;49.976;8.240;2024-01-15T07:44:16;18.93;;;10.73;;
803;SDS011;25687;49.976;8.240;2024-01-15T07:46:45;20.40;;;11.63;;
803;SDS011;25687;49.976;8.240;2024-01-15T07:49:13;21.67;;;11.53;;
803;SDS011;25687;49.976;8.240;2024-01-15T07:51:38;18.20;;;10.43;;
803;SDS011;25687;49.976;8.240;2024-01-15T07:54:08;20.80;;;11.43;;
803;SDS011;25687;49.976;8.240;2024-01-15T07:56:34;22.63;;;11.57;;
803;SDS011;25687;49.976;8.240;2024-01-15T07:58:59;22.30;;;11.53;;
803;SDS011;25687;49.976;8.240;2024-01-15T08:01:25;19.63;;;11.37;;
803;SDS011;25687;49.976;8.240;2024-01-15T08:03:50;22.77;;;11.30;;
803;SDS011;25687;49.976;8.240;2024-01-15T08:06:15;21.60;;;10.93;;
803;SDS011;25687;49.976;8.240;2024-01-15T08:08:41;20.60;;;11.83;;
803;SDS011;25687;49.976;8.240;2024-01-15T08:11:06;18.17;;;9.67;;
803;SDS011;25687;49.976;8.240;2024-01-15T08:13:32;23.20;;;10.70;;
803;SDS011;25687;49.976;8.240;2024-01-15T08:15:57;22.30;;;11.43;;
803;SDS011;25687;49.976;8.240;2024-01-15T08:18:22;20.03;;;10.43;;
803;SDS011;25687;49.976;8.240;2024-01-15T08:20:48;24.40;;;11.40;;
803;SDS011;25687;49.976;8.240;2024-01-15T08:23:13;20.27;;;10.47;;
803;SDS011;25687;49.976;8.240;2024-01-15T08:25:38;22.70;;;11.50;;
803;SDS011;25687;49.976;8.240;2024-01-15T08:28:04;18.77;;;10.07;;
803;SDS011;25687;49.976;8.240;2024-01-15T08:30:29;19.80;;;10.93;;
803;SDS011;25687;49.976;8.240;2024-01-15T08:32:55;20.67;;;10.63;;
803;SDS011;25687;49.976;8.240;2024-01-15T08:35:20;18.93;;;10.07;;
803;SDS011;25687;49.976;8.240;2024-01-15T08:37:50;19.33;;;10.07;;
803;SDS011;25687;49.976;8.240;2024-01-15T08:40:16;20.87;;;10.57;;
803;SDS011;25687;49.976;8.240;2024-01-15T08:42:42;19.30;;;9.80;;
803;SDS011;25687;49.976;8.240;2024-01-15T08:45:08;20.03;;;10.43;;
803;SDS011;25687;49.976;8.240;2024-01-15T08:47:34;14.93;;;9.33;;
803;SDS011;25687;49.976;8.240;2024-01-15T08:50:00;15.73;;;9.47;;
803;SDS011;25687;49.976;8.240;2024-01-15T08:52:26;16.87;;;9.87;;
803;SDS011;25687;49.976;8.240;2024-01-15T08:54:51;15.47;;;9.03;;
803;SDS011;25687;49.976;8.240;2024-01-15T08:57:16;15.40;;;9.27;;
803;SDS011;25687;49.976;8.240;2024-01-15T08:59:41;16.50;;;10.23;;
803;SDS011;25687;49.976;8.240;2024-01-15T09:02:07;17.83;;;10.13;;
803;SDS011;25687;49.976;8.240;2024-01-15T09:04:32;20.07;;;9.97;;
803;SDS011;25687;49.976;8.240;2024-01-15T09:06:58;15.93;;;9.60;;
803;SDS011;25687;49.976;8.240;2024-01-15T09:09:23;13.40;;;8.80;;
803;SDS011;25687;49.976;8.240;2024-01-15T09:11:49;16.83;;;9.53;;
803;SDS011;25687;49.976;8.240;2024-01-15T09:14:15;14.77;;;8.27;;
803;SDS011;25687;49.976;8.240;2024-01-15T09:16:40;18.57;;;10.37;;
803;SDS011;25687;49.976;8.240;2024-01-15T09:19:05;17.47;;;9.23;;
803;SDS011;25687;49.976;8.240;2024-01-15T09:21:30;15.53;;;9.27;;
803;SDS011;25687;49.976;8.240;2024-01-15T09:23:56;19.40;;;10.53;;
803;SDS011;25687;49.976;8.240;2024-01-15T09:26:21;14.77;;;9.70;;
803;SDS011;25687;49.976;8.240;2024-01-15T09:28:46;20.27;;;12.10;;
803;SDS011;25687;49.976;8.240;2024-01-15T09:31:11;14.43;;;10.27;;
803;SDS011;25687;49.976;8.240;2024-01-15T09:33:37;17.33;;;10.57;;
803;SDS011;25687;49.976;8.240;2024-01-15T09:36:03;19.13;;;10.57;;
803;SDS011;25687;49.976;8.240;2024-01-15T09:38:29;16.97;;;9.63;;
803;SDS011;25687;49.976;8.240;2024-01-15T09:40:54;17.47;;;10.27;;
803;SDS011;25687;49.976;8.240;2024-01-15T09:43:20;17.17;;;8.90;;
803;SDS011;25687;49.976;8.240;2024-01-15T09:45:46;16.83;;;10.17;;
803;SDS011;25687;49.976;8.240;2024-01-15T09:48:12;18.67;;;10.40;;
803;SDS011;25687;49.976;8.240;2024-01-15T09:50:38;16.20;;;9.83;;
803;SDS011;25687;49.976;8.240;2024-01-15T09:53:03;15.23;;;10.13;;
803;SDS011;25687;49.976;8.240;2024-01-15T09:55:30;18.50;;;9.90;;
803;SDS011;25687;49.976;8.240;2024-01-15T09:57:57;16.20;;;9.73;;
803;SDS011;25687;49.976;8.240;2024-01-15T10:00:25;15.20;;;9.97;;
803;SDS011;25687;49.976;8.240;2024-01-15T10:02:51;20.37;;;12.40;;
803;SDS011;25687;49.976;8.240;2024-01-15T10:05:17;20.07;;;10.50;;
803;SDS011;25687;49.976;8.240;2024-01-15T10:07:42;16.87;;;10.40;;
803;SDS011;25687;49.976;8.240;2024-01-15T10:10:10;15.83;;;10.10;;
803;SDS011;25687;49.976;8.240;2024-01-15T10:12:36;13.57;;;9.33;;
803;SDS011;25687;49.976;8.240;2024-01-15T10:15:02;15.63;;;9.93;;
803;SDS011;25687;49.976;8.240;2024-01-15T10:17:29;16.67;;;9.97;;
803;SDS011;25687;49.976;8.240;2024-01-15T10:19:56;17.30;;;10.23;;
803;SDS011;25687;49.976;8.240;2024-01-15T10:22:21;15.60;;;9.73;;
803;SDS011;25687;49.976;8.240;2024-01-15T10:24:46;14.40;;;9.63;;
803;SDS011;25687;49.976;8.240;2024-01-15T10:27:12;15.03;;;9.87;;
803;SDS011;25687;49.976;8.240;2024-01-15T10:29:37;13.83;;;9.87;;
803;SDS011;25687;49.976;8.240;2024-01-15T10:32:05;17.37;;;10.20;;
803;SDS011;25687;49.976;8.240;2024-01-15T10:34:32;13.90;;;9.70;;
803;SDS011;25687;49.976;8.240;2024-01-15T10:36:58;13.23;;;8.63;;
803;SDS011;25687;49.976;8.240;2024-01-15T10:39:23;11.63;;;7.77;;
803;SDS011;25687;49.976;8.240;2024-01-15T10:41:49;14.03;;;8.17;;
803;SDS011;25687;49.976;8.240;2024-01-15T10:44:16;16.10;;;9.40;;
803;SDS011;25687;49.976;8.240;2024-01-15T10:46:42;16.10;;;9.00;;
803;SDS011;25687;49.976;8.240;2024-01-15T10:49:08;12.57;;;8.73;;
803;SDS011;25687;49.976;8.240;2024-01-15T10:51:35;13.10;;;8.50;;
803;SDS011;25687;49.976;8.240;2024-01-15T10:54:01;15.20;;;8.73;;
803;SDS011;25687;49.976;8.240;2024-01-15T10:56:27;12.23;;;8.73;;
803;SDS011;25687;49.976;8.240;2024-01-15T10:58:54;14.73;;;9.17;;
803;SDS011;25687;49.976;8.240;2024-01-15T11:01:21;13.80;;;9.30;;
803;SDS011;25687;49.976;8.240;2024-01-15T11:03:46;14.27;;;9.67;;
803;SDS011;25687;49.976;8.240;2024-01-15T11:06:18;11.53;;;7.67;;
803;SDS011;25687;49.976;8.240;2024-01-15T11:08:46;10.60;;;8.00;;
803;SDS011;25687;49.976;8.240;2024-01-15T11:11:15;13.07;;;7.97;;
803;SDS011;25687;49.976;8.240;2024-01-15T11:13:41;12.27;;;8.13;;
803;SDS011;25687;49.976;8.240;2024-01-15T11:16:09;12.33;;;7.93;;
803;SDS011;25687;49.976;8.240;2024-01-15T11:18:38;12.67;;;8.60;;
803;SDS011;25687;49.976;8.240;2024-01-15T11:23:43;10.43;;;7.43;;
803;SDS011;25687;49.976;8.240;2024-01-15T11:26:30;12.20;;;6.83;;
803;SDS011;25687;49.976;8.240;2024-01-15T11:28:57;11.93;;;7.37;;
803;SDS011;25687;49.976;8.240;2024-01-15T11:34:05;12.27;;;8.30;;
803;SDS011;25687;49.976;8.240;2024-01-15T11:41:56;11.30;;;7.53;;
803;SDS011;25687;49.976;8.240;2024-01-15T11:44:25;10.17;;;7.87;;
803;SDS011;25687;49.976;8.240;2024-01-15T11:47:01;10.00;;;6.67;;
803;SDS011;25687;49.976;8.240;2024-01-15T11:52:32;11.60;;;7.63;;
803;SDS011;25687;49.976;8.240;2024-01-15T11:57:45;13.57;;;7.67;;
803;SDS011;25687;49.976;8.240;2024-01-15T12:00:14;10.23;;;6.97;;
803;SDS011;25687;49.976;8.240;2024-01-15T12:02:40;10.57;;;7.63;;
803;SDS011;25687;49.976;8.240;2024-01-15T12:05:10;10.07;;;7.70;;
803;SDS011;25687;49.976;8.240;2024-01-15T12:07:40;10.57;;;7.37;;
803;SDS011;25687;49.976;8.240;2024-01-15T12:10:12;9.97;;;7.03;;
803;SDS011;25687;49.976;8.240;2024-01-15T12:15:27;9.67;;;6.67;;
803;SDS011;25687;49.976;8.240;2024-01-15T12:17:54;11.00;;;7.27;;
803;SDS011;25687;49.976;8.240;2024-01-15T12:20:22;10.33;;;6.57;;
803;SDS011;25687;49.976;8.240;2024-01-15T12:22:49;9.90;;;6.77;;
803;SDS011;25687;49.976;8.240;2024-01-15T12:25:14;9.83;;;6.53;;
803;SDS011;25687;49.976;8.240;2024-01-15T12:27:40;12.60;;;7.57;;
803;SDS011;25687;49.976;8.240;2024-01-15T12:30:05;10.43;;;7.60;;
803;SDS011;25687;49.976;8.240;2024-01-15T12:32:32;12.43;;;7.57;;
803;SDS011;25687;49.976;8.240;2024-01-15T12:34:57;10.10;;;6.87;;
803;SDS011;25687;49.976;8.240;2024-01-15T12:37:23;11.63;;;7.20;;
803;SDS011;25687;49.976;8.240;2024-01-15T12:39:50;9.37;;;6.60;;
803;SDS011;25687;49.976;8.240;2024-01-15T12:42:17;10.83;;;6.63;;
803;SDS011;25687;49.976;8.240;2024-01-15T12:44:43;9.43;;;6.70;;
803;SDS011;25687;49.976;8.240;2024-01-15T12:47:10;9.97;;;6.97;;
803;SDS011;25687;49.976;8.240;2024-01-15T12:49:38;7.87;;;6.17;;
803;SDS011;25687;49.976;8.240;2024-01-15T12:52:07;10.77;;;6.67;;
803;SDS011;25687;49.976;8.240;2024-01-15T12:54:34;9.97;;;5.90;;
803;SDS011;25687;49.976;8.240;2024-01-15T12:56:59;9.07;;;6.17;;
803;SDS011;25687;49.976;8.240;2024-01-15T12:59:24;10.53;;;6.60;;
803;SDS011;25687;49.976;8.240;2024-01-15T13:01:50;11.20;;;6.60;;
803;SDS011;25687;49.976;8.240;2024-01-15T13:04:21;9.70;;;6.57;;
803;SDS011;25687;49.976;8.240;2024-01-15T13:06:50;12.37;;;6.60;;
803;SDS011;25687;49.976;8.240;2024-01-15T13:09:19;11.57;;;6.43;;
803;SDS011;25687;49.976;8.240;2024-01-15T13:11:45;8.63;;;6.30;;
803;SDS011;25687;49.976;8.240;2024-01-15T13:14:10;9.03;;;5.87;;
803;SDS011;25687;49.976;8.240;2024-01-15T13:16:38;8.27;;;5.60;;
803;SDS011;25687;49.976;8.240;2024-01-15T13:19:03;7.57;;;5.60;;
803;SDS011;25687;49.976;8.240;2024-01-15T13:21:29;9.77;;;6.33;;
803;SDS011;25687;49.976;8.240;2024-01-15T13:23:55;9.27;;;5.10;;
803;SDS011;25687;49.976;8.240;2024-01-15T13:26:20;9.17;;;5.50;;
803;SDS011;25687;49.976;8.240;2024-01-15T13:28:46;7.07;;;5.50;;
803;SDS011;25687;49.976;8.240;2024-01-15T13:31:11;15.40;;;6.40;;
803;SDS011;25687;49.976;8.240;2024-01-15T13:33:38;8.27;;;5.27;;
803;SDS011;25687;49.976;8.240;2024-01-15T13:36:04;7.40;;;5.30;;
803;SDS011;25687;49.976;8.240;2024-01-15T13:38:33;7.17;;;5.53;;
803;SDS011;25687;49.976;8.240;2024-01-15T13:41:01;8.70;;;5.90;;
803;SDS011;25687;49.976;8.240;2024-01-15T13:43:26;7.50;;;4.90;;
803;SDS011;25687;49.976;8.240;2024-01-15T13:45:52;8.07;;;5.70;;
803;SDS011;25687;49.976;8.240;2024-01-15T13:48:18;8.23;;;5.03;;
803;SDS011;25687;49.976;8.240;2024-01-15T13:50:44;8.60;;;5.13;;
803;SDS011;25687;49.976;8.240;2024-01-15T13:53:09;12.20;;;5.70;;
803;SDS011;25687;49.976;8.240;2024-01-15T13:55:34;6.93;;;5.10;;
803;SDS011;25687;49.976;8.240;2024-01-15T13:58:00;5.97;;;4.87;;
803;SDS011;25687;49.976;8.240;2024-01-15T14:00:25;8.13;;;5.53;;
803;SDS011;25687;49.976;8.240;2024-01-15T14:02:50;5.60;;;4.60;;
803;SDS011;25687;49.976;8.240;2024-01-15T14:05:15;6.80;;;4.97;;
803;SDS011;25687;49.976;8.240;2024-01-15T14:07:41;6.07;;;4.80;;
803;SDS011;25687;49.976;8.240;2024-01-15T14:10:08;7.23;;;4.77;;
803;SDS011;25687;49.976;8.240;2024-01-15T14:12:34;6.33;;;4.63;;
803;SDS011;25687;49.976;8.240;2024-01-15T14:15:03;7.13;;;4.27;;
803;SDS011;25687;49.976;8.240;2024-01-15T14:17:30;7.53;;;4.30;;
803;SDS011;25687;49.976;8.240;2024-01-15T14:19:55;9.17;;;4.60;;
803;SDS011;25687;49.976;8.240;2024-01-15T14:22:20;7.23;;;4.10;;
803;SDS011;25687;49.976;8.240;2024-01-15T14:24:46;5.63;;;3.60;;
803;SDS011;25687;49.976;8.240;2024-01-15T14:27:11;5.50;;;3.80;;
803;SDS011;25687;49.976;8.240;2024-01-15T14:29:36;6.53;;;4.20;;
803;SDS011;25687;49.976;8.240;2024-01-15T14:32:02;9.50;;;4.97;;
803;SDS011;25687;49.976;8.240;2024-01-15T14:34:27;7.57;;;3.93;;
803;SDS011;25687;49.976;8.240;2024-01-15T14:36:52;7.10;;;4.00;;
803;SDS011;25687;49.976;8.240;2024-01-15T14:39:19;5.33;;;3.43;;
803;SDS011;25687;49.976;8.240;2024-01-15T14:41:44;5.43;;;3.87;;
803;SDS011;25687;49.976;8.240;2024-01-15T14:44:10;6.97;;;3.87;;
803;SDS011;25687;49.976;8.240;2024-01-15T14:46:37;6.87;;;3.90;;
803;SDS011;25687;49.976;8.240;2024-01-15T14:49:02;7.77;;;4.20;;
803;SDS011;25687;49.976;8.240;2024-01-15T14:51:27;5.67;;;3.80;;
803;SDS011;25687;49.976;8.240;2024-01-15T14:53:53;5.03;;;3.70;;
803;SDS011;25687;49.976;8.240;2024-01-15T14:56:18;7.33;;;4.20;;
803;SDS011;25687;49.976;8.240;2024-01-15T14:58:43;5.97;;;3.50;;
803;SDS011;25687;49.976;8.240;2024-01-15T15:01:09;7.80;;;3.20;;
803;SDS011;25687;49.976;8.240;2024-01-15T15:03:34;7.20;;;3.60;;
803;SDS011;25687;49.976;8.240;2024-01-15T15:06:00;6.20;;;4.30;;
803;SDS011;25687;49.976;8.240;2024-01-15T15:08:26;4.63;;;3.30;;